RJK weather

Rijeka Airport
Rijeka, Primorje-Gorski Kotar County, Croatia

Public forecast

Using degrees Celsius for public forecast. Weather courtesy of forecast.io.

Current aviation weather report (METAR) for Rijeka Airport

Retrieved 2019/12/09 12:30 UTC (13 minutes ago):

LDRI 091230Z 11005KT 9999 -RA SCT012 BKN032 BKN045 11/11 Q1006

Aviation forecast (TAF) for Rijeka Airport

Retrieved 2019/12/09 12:27 UTC (16 minutes ago):

TAF LDRI 091125Z 0912/1012 18006KT 9999 SCT015 BKN040 TX13/0912Z TN07/1003Z TEMPO 0912/1000 RA PROB30 TEMPO 0912/0921 26010KT 3000 TSRA BKN014 FEW020CB OVC030 BECMG 0921/0923 04015KT TEMPO 1000/1009 04018G35KT TEMPO 1009/1012 VRB10KT PROB30 TEMPO 1009/1012 04018G35KT